sensor_id;sensor_type;location;lat;lon;timestamp;P1;durP1;ratioP1;P2;durP2;ratioP2
51451;SDS011;37521;52.020;-1.740;2023-02-15T00:02:10;22.67;;;10.25;;
51451;SDS011;37521;52.020;-1.740;2023-02-15T00:04:38;18.58;;;9.77;;
51451;SDS011;37521;52.020;-1.740;2023-02-15T00:07:24;18.17;;;8.57;;
51451;SDS011;37521;52.020;-1.740;2023-02-15T00:09:52;17.35;;;8.15;;
51451;SDS011;37521;52.020;-1.740;2023-02-15T00:12:20;19.80;;;9.27;;
51451;SDS011;37521;52.020;-1.740;2023-02-15T00:14:48;22.17;;;9.38;;
51451;SDS011;37521;52.020;-1.740;2023-02-15T00:17:18;22.58;;;9.93;;
51451;SDS011;37521;52.020;-1.740;2023-02-15T00:19:46;24.55;;;9.82;;
51451;SDS011;37521;52.020;-1.740;2023-02-15T00:22:14;18.67;;;9.02;;
51451;SDS011;37521;52.020;-1.740;2023-02-15T00:24:42;20.75;;;9.43;;
51451;SDS011;37521;52.020;-1.740;2023-02-15T00:27:11;19.13;;;9.02;;
51451;SDS011;37521;52.020;-1.740;2023-02-15T00:29:39;19.52;;;9.15;;
51451;SDS011;37521;52.020;-1.740;2023-02-15T00:32:07;20.23;;;8.75;;
51451;SDS011;37521;52.020;-1.740;2023-02-15T00:34:36;19.80;;;8.02;;
51451;SDS011;37521;52.020;-1.740;2023-02-15T00:37:04;18.85;;;7.32;;
51451;SDS011;37521;52.020;-1.740;2023-02-15T00:39:33;20.38;;;7.28;;
51451;SDS011;37521;52.020;-1.740;2023-02-15T00:42:01;15.10;;;7.80;;
51451;SDS011;37521;52.020;-1.740;2023-02-15T00:44:29;14.80;;;6.97;;
51451;SDS011;37521;52.020;-1.740;2023-02-15T00:46:57;16.70;;;7.32;;
51451;SDS011;37521;52.020;-1.740;2023-02-15T00:49:25;16.38;;;7.57;;
51451;SDS011;37521;52.020;-1.740;2023-02-15T00:51:55;15.15;;;6.63;;
51451;SDS011;37521;52.020;-1.740;2023-02-15T00:54:23;14.80;;;7.43;;
51451;SDS011;37521;52.020;-1.740;2023-02-15T00:56:51;16.48;;;7.15;;
51451;SDS011;37521;52.020;-1.740;2023-02-15T00:59:19;16.08;;;7.88;;
51451;SDS011;37521;52.020;-1.740;2023-02-15T01:01:47;16.88;;;8.20;;
51451;SDS011;37521;52.020;-1.740;2023-02-15T01:04:18;15.82;;;7.03;;
51451;SDS011;37521;52.020;-1.740;2023-02-15T01:06:46;17.88;;;7.55;;
51451;SDS011;37521;52.020;-1.740;2023-02-15T01:09:15;19.58;;;6.90;;
51451;SDS011;37521;52.020;-1.740;2023-02-15T01:11:44;12.48;;;6.85;;
51451;SDS011;37521;52.020;-1.740;2023-02-15T01:14:12;15.05;;;6.68;;
51451;SDS011;37521;52.020;-1.740;2023-02-15T01:16:41;11.57;;;6.38;;
51451;SDS011;37521;52.020;-1.740;2023-02-15T01:19:09;19.05;;;7.63;;
51451;SDS011;37521;52.020;-1.740;2023-02-15T01:21:38;14.57;;;7.28;;
51451;SDS011;37521;52.020;-1.740;2023-02-15T01:24:10;14.57;;;6.97;;
51451;SDS011;37521;52.020;-1.740;2023-02-15T01:26:40;18.98;;;9.00;;
51451;SDS011;37521;52.020;-1.740;2023-02-15T01:29:09;14.85;;;7.07;;
51451;SDS011;37521;52.020;-1.740;2023-02-15T01:31:37;15.88;;;7.80;;
51451;SDS011;37521;52.020;-1.740;2023-02-15T01:34:06;18.73;;;7.35;;
51451;SDS011;37521;52.020;-1.740;2023-02-15T01:36:37;16.80;;;6.97;;
51451;SDS011;37521;52.020;-1.740;2023-02-15T01:39:06;16.55;;;6.75;;
51451;SDS011;37521;52.020;-1.740;2023-02-15T01:41:36;17.10;;;7.40;;
51451;SDS011;37521;52.020;-1.740;2023-02-15T01:47:04;21.73;;;7.03;;
51451;SDS011;37521;52.020;-1.740;2023-02-15T01:49:32;16.63;;;7.40;;
51451;SDS011;37521;52.020;-1.740;2023-02-15T01:52:00;17.33;;;7.50;;
51451;SDS011;37521;52.020;-1.740;2023-02-15T01:54:29;17.70;;;7.47;;
51451;SDS011;37521;52.020;-1.740;2023-02-15T01:57:05;14.60;;;7.70;;
51451;SDS011;37521;52.020;-1.740;2023-02-15T01:59:38;14.48;;;6.60;;
51451;SDS011;37521;52.020;-1.740;2023-02-15T02:02:11;12.10;;;6.55;;
51451;SDS011;37521;52.020;-1.740;2023-02-15T02:04:42;13.95;;;7.15;;
51451;SDS011;37521;52.020;-1.740;2023-02-15T02:07:14;13.02;;;7.07;;
51451;SDS011;37521;52.020;-1.740;2023-02-15T02:09:44;13.93;;;6.78;;
51451;SDS011;37521;52.020;-1.740;2023-02-15T02:12:13;19.88;;;6.57;;
51451;SDS011;37521;52.020;-1.740;2023-02-15T02:14:43;14.50;;;7.20;;
51451;SDS011;37521;52.020;-1.740;2023-02-15T02:17:15;16.90;;;6.75;;
51451;SDS011;37521;52.020;-1.740;2023-02-15T02:22:55;15.23;;;6.30;;
51451;SDS011;37521;52.020;-1.740;2023-02-15T02:25:54;11.95;;;6.20;;
51451;SDS011;37521;52.020;-1.740;2023-02-15T02:28:53;14.98;;;6.38;;
51451;SDS011;37521;52.020;-1.740;2023-02-15T02:31:50;17.70;;;7.03;;
51451;SDS011;37521;52.020;-1.740;2023-02-15T02:34:42;16.23;;;6.43;;
51451;SDS011;37521;52.020;-1.740;2023-02-15T02:37:20;11.70;;;6.75;;
51451;SDS011;37521;52.020;-1.740;2023-02-15T02:39:53;9.18;;;5.97;;
51451;SDS011;37521;52.020;-1.740;2023-02-15T02:42:35;14.90;;;6.57;;
51451;SDS011;37521;52.020;-1.740;2023-02-15T02:45:08;16.15;;;7.25;;
51451;SDS011;37521;52.020;-1.740;2023-02-15T02:47:42;13.43;;;6.20;;
51451;SDS011;37521;52.020;-1.740;2023-02-15T02:50:16;13.25;;;6.43;;
51451;SDS011;37521;52.020;-1.740;2023-02-15T02:52:46;13.52;;;5.78;;
51451;SDS011;37521;52.020;-1.740;2023-02-15T02:55:17;16.33;;;7.35;;
51451;SDS011;37521;52.020;-1.740;2023-02-15T02:57:51;15.05;;;6.18;;
51451;SDS011;37521;52.020;-1.740;2023-02-15T03:00:23;18.13;;;7.77;;
51451;SDS011;37521;52.020;-1.740;2023-02-15T03:02:58;15.57;;;6.80;;
51451;SDS011;37521;52.020;-1.740;2023-02-15T03:05:33;17.90;;;7.95;;
51451;SDS011;37521;52.020;-1.740;2023-02-15T03:08:04;12.30;;;4.77;;
51451;SDS011;37521;52.020;-1.740;2023-02-15T03:10:36;13.73;;;6.93;;
51451;SDS011;37521;52.020;-1.740;2023-02-15T03:13:07;17.52;;;7.82;;
51451;SDS011;37521;52.020;-1.740;2023-02-15T03:15:37;12.88;;;6.78;;
51451;SDS011;37521;52.020;-1.740;2023-02-15T03:18:25;18.70;;;7.32;;
51451;SDS011;37521;52.020;-1.740;2023-02-15T03:21:00;15.80;;;8.07;;
51451;SDS011;37521;52.020;-1.740;2023-02-15T03:23:30;19.30;;;6.78;;
51451;SDS011;37521;52.020;-1.740;2023-02-15T03:26:03;18.95;;;7.85;;
51451;SDS011;37521;52.020;-1.740;2023-02-15T03:28:36;13.98;;;6.85;;
51451;SDS011;37521;52.020;-1.740;2023-02-15T03:33:40;15.55;;;7.00;;
51451;SDS011;37521;52.020;-1.740;2023-02-15T03:36:14;14.02;;;7.90;;
51451;SDS011;37521;52.020;-1.740;2023-02-15T03:38:49;18.80;;;7.72;;
51451;SDS011;37521;52.020;-1.740;2023-02-15T03:41:26;14.52;;;7.07;;
51451;SDS011;37521;52.020;-1.740;2023-02-15T03:44:00;16.13;;;8.27;;
51451;SDS011;37521;52.020;-1.740;2023-02-15T03:46:35;15.13;;;7.32;;
51451;SDS011;37521;52.020;-1.740;2023-02-15T03:49:09;18.10;;;8.52;;
51451;SDS011;37521;52.020;-1.740;2023-02-15T03:51:43;13.63;;;6.85;;
51451;SDS011;37521;52.020;-1.740;2023-02-15T03:54:15;12.15;;;6.38;;
51451;SDS011;37521;52.020;-1.740;2023-02-15T03:57:06;12.73;;;6.47;;
51451;SDS011;37521;52.020;-1.740;2023-02-15T03:59:54;16.52;;;6.78;;
51451;SDS011;37521;52.020;-1.740;2023-02-15T04:02:40;15.80;;;6.65;;
51451;SDS011;37521;52.020;-1.740;2023-02-15T04:05:15;14.27;;;7.30;;
51451;SDS011;37521;52.020;-1.740;2023-02-15T04:07:44;10.50;;;6.15;;
51451;SDS011;37521;52.020;-1.740;2023-02-15T04:10:13;14.30;;;6.63;;
51451;SDS011;37521;52.020;-1.740;2023-02-15T04:12:59;12.60;;;6.20;;
51451;SDS011;37521;52.020;-1.740;2023-02-15T04:15:27;15.85;;;6.65;;
51451;SDS011;37521;52.020;-1.740;2023-02-15T04:18:13;12.63;;;6.90;;
51451;SDS011;37521;52.020;-1.740;2023-02-15T04:20:43;17.02;;;7.35;;
51451;SDS011;37521;52.020;-1.740;2023-02-15T04:23:30;15.80;;;7.03;;
51451;SDS011;37521;52.020;-1.740;2023-02-15T04:26:16;13.20;;;6.50;;
51451;SDS011;37521;52.020;-1.740;2023-02-15T04:28:44;13.63;;;6.07;;
51451;SDS011;37521;52.020;-1.740;2023-02-15T04:31:13;14.60;;;6.68;;
51451;SDS011;37521;52.020;-1.740;2023-02-15T04:33:41;17.42;;;6.85;;
51451;SDS011;37521;52.020;-1.740;2023-02-15T04:36:10;14.20;;;7.22;;
51451;SDS011;37521;52.020;-1.740;2023-02-15T04:38:39;9.90;;;6.78;;
51451;SDS011;37521;52.020;-1.740;2023-02-15T04:41:07;13.55;;;6.78;;
51451;SDS011;37521;52.020;-1.740;2023-02-15T04:43:37;18.98;;;7.78;;
51451;SDS011;37521;52.020;-1.740;2023-02-15T04:46:06;11.73;;;6.85;;
51451;SDS011;37521;52.020;-1.740;2023-02-15T04:48:34;16.95;;;7.30;;
51451;SDS011;37521;52.020;-1.740;2023-02-15T04:51:04;14.20;;;7.05;;
51451;SDS011;37521;52.020;-1.740;2023-02-15T04:53:34;14.90;;;6.70;;
51451;SDS011;37521;52.020;-1.740;2023-02-15T04:56:03;12.90;;;6.85;;
51451;SDS011;37521;52.020;-1.740;2023-02-15T04:58:31;15.82;;;7.70;;
51451;SDS011;37521;52.020;-1.740;2023-02-15T05:00:59;10.95;;;6.25;;
51451;SDS011;37521;52.020;-1.740;2023-02-15T05:03:28;14.45;;;6.80;;
51451;SDS011;37521;52.020;-1.740;2023-02-15T05:05:56;15.70;;;6.25;;
51451;SDS011;37521;52.020;-1.740;2023-02-15T05:08:25;14.18;;;6.75;;
51451;SDS011;37521;52.020;-1.740;2023-02-15T05:10:53;21.52;;;7.88;;
51451;SDS011;37521;52.020;-1.740;2023-02-15T05:13:22;17.75;;;7.43;;
51451;SDS011;37521;52.020;-1.740;2023-02-15T05:15:51;16.92;;;8.18;;
51451;SDS011;37521;52.020;-1.740;2023-02-15T05:18:20;19.38;;;7.90;;
51451;SDS011;37521;52.020;-1.740;2023-02-15T05:20:49;16.92;;;7.63;;
51451;SDS011;37521;52.020;-1.740;2023-02-15T05:23:17;15.88;;;7.97;;
51451;SDS011;37521;52.020;-1.740;2023-02-15T05:25:46;13.10;;;7.05;;
51451;SDS011;37521;52.020;-1.740;2023-02-15T05:28:34;15.80;;;7.70;;
51451;SDS011;37521;52.020;-1.740;2023-02-15T05:31:06;17.05;;;7.70;;
51451;SDS011;37521;52.020;-1.740;2023-02-15T05:33:37;14.63;;;7.28;;
51451;SDS011;37521;52.020;-1.740;2023-02-15T05:36:06;16.40;;;8.18;;
51451;SDS011;37521;52.020;-1.740;2023-02-15T05:38:35;17.90;;;8.48;;
51451;SDS011;37521;52.020;-1.740;2023-02-15T05:41:04;17.70;;;8.20;;
51451;SDS011;37521;52.020;-1.740;2023-02-15T05:43:34;17.52;;;8.85;;
51451;SDS011;37521;52.020;-1.740;2023-02-15T05:46:02;16.08;;;8.80;;
51451;SDS011;37521;52.020;-1.740;2023-02-15T05:48:31;19.42;;;9.10;;
51451;SDS011;37521;52.020;-1.740;2023-02-15T05:51:01;20.98;;;9.15;;
51451;SDS011;37521;52.020;-1.740;2023-02-15T05:53:31;12.77;;;6.82;;
51451;SDS011;37521;52.020;-1.740;2023-02-15T05:56:01;20.60;;;8.80;;
51451;SDS011;37521;52.020;-1.740;2023-02-15T05:58:31;18.33;;;8.05;;
51451;SDS011;37521;52.020;-1.740;2023-02-15T06:01:07;18.23;;;7.38;;
51451;SDS011;37521;52.020;-1.740;2023-02-15T06:03:36;18.33;;;9.50;;
51451;SDS011;37521;52.020;-1.740;2023-02-15T06:06:04;22.00;;;9.90;;
51451;SDS011;37521;52.020;-1.740;2023-02-15T06:08:33;18.17;;;8.75;;
51451;SDS011;37521;52.020;-1.740;2023-02-15T06:11:02;27.77;;;10.27;;
51451;SDS011;37521;52.020;-1.740;2023-02-15T06:13:31;23.50;;;9.32;;
51451;SDS011;37521;52.020;-1.740;2023-02-15T06:16:05;18.98;;;8.93;;
51451;SDS011;37521;52.020;-1.740;2023-02-15T06:18:33;19.60;;;9.10;;
51451;SDS011;37521;52.020;-1.740;2023-02-15T06:21:02;14.93;;;7.85;;
51451;SDS011;37521;52.020;-1.740;2023-02-15T06:23:30;19.05;;;8.00;;
51451;SDS011;37521;52.020;-1.740;2023-02-15T06:25:58;19.40;;;8.93;;
51451;SDS011;37521;52.020;-1.740;2023-02-15T06:28:27;19.45;;;8.05;;
51451;SDS011;37521;52.020;-1.740;2023-02-15T06:30:55;15.10;;;7.57;;
51451;SDS011;37521;52.020;-1.740;2023-02-15T06:33:25;16.48;;;7.68;;
51451;SDS011;37521;52.020;-1.740;2023-02-15T06:35:53;16.75;;;8.63;;
51451;SDS011;37521;52.020;-1.740;2023-02-15T06:38:21;15.80;;;7.80;;
51451;SDS011;37521;52.020;-1.740;2023-02-15T06:40:49;16.52;;;7.85;;
51451;SDS011;37521;52.020;-1.740;2023-02-15T06:43:18;17.20;;;8.27;;
51451;SDS011;37521;52.020;-1.740;2023-02-15T06:45:46;22.70;;;9.02;;
51451;SDS011;37521;52.020;-1.740;2023-02-15T06:48:14;24.80;;;9.40;;
51451;SDS011;37521;52.020;-1.740;2023-02-15T06:50:43;18.90;;;9.13;;
51451;SDS011;37521;52.020;-1.740;2023-02-15T06:53:11;24.05;;;9.25;;
51451;SDS011;37521;52.020;-1.740;2023-02-15T06:55:39;25.35;;;10.27;;
51451;SDS011;37521;52.020;-1.740;2023-02-15T06:58:08;20.73;;;8.93;;
51451;SDS011;37521;52.020;-1.740;2023-02-15T07:00:36;18.90;;;8.38;;
51451;SDS011;37521;52.020;-1.740;2023-02-15T07:03:04;20.13;;;9.23;;
51451;SDS011;37521;52.020;-1.740;2023-02-15T07:05:33;26.20;;;8.75;;
51451;SDS011;37521;52.020;-1.740;2023-02-15T07:08:03;20.17;;;8.57;;
51451;SDS011;37521;52.020;-1.740;2023-02-15T07:10:31;24.52;;;9.07;;
51451;SDS011;37521;52.020;-1.740;2023-02-15T07:12:59;24.45;;;9.95;;
51451;SDS011;37521;52.020;-1.740;2023-02-15T07:15:26;25.73;;;10.80;;
51451;SDS011;37521;52.020;-1.740;2023-02-15T07:17:54;19.75;;;9.30;;
51451;SDS011;37521;52.020;-1.740;2023-02-15T07:20:25;22.60;;;11.23;;
51451;SDS011;37521;52.020;-1.740;2023-02-15T07:22:53;20.60;;;9.35;;
51451;SDS011;37521;52.020;-1.740;2023-02-15T07:25:23;20.73;;;11.07;;
51451;SDS011;37521;52.020;-1.740;2023-02-15T07:27:54;19.88;;;9.27;;
51451;SDS011;37521;52.020;-1.740;2023-02-15T07:30:23;20.05;;;9.57;;
51451;SDS011;37521;52.020;-1.740;2023-02-15T07:32:54;25.15;;;11.43;;
51451;SDS011;37521;52.020;-1.740;2023-02-15T07:35:45;23.02;;;9.85;;
51451;SDS011;37521;52.020;-1.740;2023-02-15T07:38:15;21.60;;;8.85;;
51451;SDS011;37521;52.020;-1.740;2023-02-15T07:40:45;20.42;;;9.75;;
51451;SDS011;37521;52.020;-1.740;2023-02-15T07:43:13;20.40;;;8.98;;
51451;SDS011;37521;52.020;-1.740;2023-02-15T07:45:42;22.30;;;10.77;;
51451;SDS011;37521;52.020;-1.740;2023-02-15T07:48:10;22.70;;;9.40;;
51451;SDS011;37521;52.020;-1.740;2023-02-15T07:50:39;25.17;;;9.32;;
51451;SDS011;37521;52.020;-1.740;2023-02-15T07:53:07;20.13;;;8.40;;
51451;SDS011;37521;52.020;-1.740;2023-02-15T07:55:35;21.63;;;9.60;;
51451;SDS011;37521;52.020;-1.740;2023-02-15T07:58:04;20.90;;;9.98;;
51451;SDS011;37521;52.020;-1.740;2023-02-15T08:00:33;21.08;;;10.30;;
51451;SDS011;37521;52.020;-1.740;2023-02-15T08:03:22;21.65;;;8.52;;
51451;SDS011;37521;52.020;-1.740;2023-02-15T08:05:55;23.50;;;8.90;;
51451;SDS011;37521;52.020;-1.740;2023-02-15T08:08:25;20.73;;;7.93;;
51451;SDS011;37521;52.020;-1.740;2023-02-15T08:10:57;27.70;;;11.93;;
51451;SDS011;37521;52.020;-1.740;2023-02-15T08:13:45;25.23;;;10.38;;
51451;SDS011;37521;52.020;-1.740;2023-02-15T08:16:21;20.92;;;9.88;;
51451;SDS011;37521;52.020;-1.740;2023-02-15T08:18:50;24.75;;;10.38;;
51451;SDS011;37521;52.020;-1.740;2023-02-15T08:21:19;26.80;;;10.63;;
51451;SDS011;37521;52.020;-1.740;2023-02-15T08:23:50;26.38;;;11.50;;
51451;SDS011;37521;52.020;-1.740;2023-02-15T08:26:19;24.83;;;10.93;;
51451;SDS011;37521;52.020;-1.740;2023-02-15T08:28:48;21.40;;;11.38;;
51451;SDS011;37521;52.020;-1.740;2023-02-15T08:31:18;21.83;;;10.60;;
51451;SDS011;37521;52.020;-1.740;2023-02-15T08:33:48;27.48;;;12.35;;
51451;SDS011;37521;52.020;-1.740;2023-02-15T08:36:18;24.25;;;11.35;;
51451;SDS011;37521;52.020;-1.740;2023-02-15T08:38:47;31.80;;;12.25;;
51451;SDS011;37521;52.020;-1.740;2023-02-15T08:41:17;27.63;;;11.02;;
51451;SDS011;37521;52.020;-1.740;2023-02-15T08:43:49;29.77;;;11.95;;
51451;SDS011;37521;52.020;-1.740;2023-02-15T08:46:20;31.15;;;12.85;;
51451;SDS011;37521;52.020;-1.740;2023-02-15T08:48:49;24.40;;;11.23;;
51451;SDS011;37521;52.020;-1.740;2023-02-15T08:51:18;29.08;;;11.57;;
51451;SDS011;37521;52.020;-1.740;2023-02-15T08:53:47;26.77;;;10.80;;
51451;SDS011;37521;52.020;-1.740;2023-02-15T08:56:17;22.90;;;9.98;;
51451;SDS011;37521;52.020;-1.740;2023-02-15T08:58:48;23.67;;;9.60;;
51451;SDS011;37521;52.020;-1.740;2023-02-15T09:01:17;25.48;;;9.30;;
51451;SDS011;37521;52.020;-1.740;2023-02-15T09:03:48;21.52;;;10.48;;
51451;SDS011;37521;52.020;-1.740;2023-02-15T09:06:19;11.85;;;6.65;;
51451;SDS011;37521;52.020;-1.740;2023-02-15T09:08:48;18.60;;;8.43;;
51451;SDS011;37521;52.020;-1.740;2023-02-15T09:11:18;20.15;;;8.57;;
51451;SDS011;37521;52.020;-1.740;2023-02-15T09:13:53;28.38;;;10.40;;
51451;SDS011;37521;52.020;-1.740;2023-02-15T09:16:23;19.05;;;6.85;;
51451;SDS011;37521;52.020;-1.740;2023-02-15T09:18:53;24.70;;;9.27;;
51451;SDS011;37521;52.020;-1.740;2023-02-15T09:21:24;17.98;;;7.97;;
51451;SDS011;37521;52.020;-1.740;2023-02-15T09:23:55;21.85;;;8.43;;
51451;SDS011;37521;52.020;-1.740;2023-02-15T09:26:26;33.03;;;11.68;;
51451;SDS011;37521;52.020;-1.740;2023-02-15T09:28:57;28.30;;;11.00;;
51451;SDS011;37521;52.020;-1.740;2023-02-15T09:31:27;18.13;;;7.50;;
51451;SDS011;37521;52.020;-1.740;2023-02-15T09:33:57;22.92;;;10.73;;
51451;SDS011;37521;52.020;-1.740;2023-02-15T09:36:27;11.45;;;5.65;;
51451;SDS011;37521;52.020;-1.740;2023-02-15T09:39:00;20.42;;;8.90;;
51451;SDS011;37521;52.020;-1.740;2023-02-15T09:44:38;26.60;;;11.65;;
51451;SDS011;37521;52.020;-1.740;2023-02-15T09:47:26;21.45;;;8.77;;
51451;SDS011;37521;52.020;-1.740;2023-02-15T09:50:10;19.10;;;7.95;;
51451;SDS011;37521;52.020;-1.740;2023-02-15T09:52:49;38.28;;;12.95;;
51451;SDS011;37521;52.020;-1.740;2023-02-15T09:55:34;22.05;;;9.95;;
51451;SDS011;37521;52.020;-1.740;2023-02-15T09:58:14;20.42;;;8.82;;
51451;SDS011;37521;52.020;-1.740;2023-02-15T10:00:56;12.48;;;5.97;;
51451;SDS011;37521;52.020;-1.740;2023-02-15T10:03:34;33.03;;;12.27;;
51451;SDS011;37521;52.020;-1.740;2023-02-15T10:06:19;16.07;;;8.37;;
51451;SDS011;37521;52.020;-1.740;2023-02-15T10:09:03;20.75;;;9.32;;
51451;SDS011;37521;52.020;-1.740;2023-02-15T10:11:48;32.30;;;11.23;;
51451;SDS011;37521;52.020;-1.740;2023-02-15T10:14:34;23.83;;;10.10;;
51451;SDS011;37521;52.020;-1.740;2023-02-15T10:17:18;21.88;;;9.50;;
51451;SDS011;37521;52.020;-1.740;2023-02-15T10:19:56;19.35;;;9.05;;
51451;SDS011;37521;52.020;-1.740;2023-02-15T10:22:35;20.83;;;8.48;;
51451;SDS011;37521;52.020;-1.740;2023-02-15T10:25:14;17.63;;;7.22;;
51451;SDS011;37521;52.020;-1.740;2023-02-15T10:27:52;27.33;;;10.40;;
51451;SDS011;37521;52.020;-1.740;2023-02-15T10:30:22;22.58;;;10.43;;
51451;SDS011;37521;52.020;-1.740;2023-02-15T10:33:01;23.75;;;10.15;;
51451;SDS011;37521;52.020;-1.740;2023-02-15T10:35:33;25.45;;;9.70;;
51451;SDS011;37521;52.020;-1.740;2023-02-15T10:38:14;26.10;;;11.38;;
51451;SDS011;37521;52.020;-1.740;2023-02-15T10:40:53;29.98;;;11.02;;
51451;SDS011;37521;52.020;-1.740;2023-02-15T10:43:37;26.05;;;10.07;;
51451;SDS011;37521;52.020;-1.740;2023-02-15T10:46:20;21.85;;;10.45;;
51451;SDS011;37521;52.020;-1.740;2023-02-15T10:51:55;17.38;;;7.70;;
51451;SDS011;37521;52.020;-1.740;2023-02-15T10:54:38;21.33;;;9.20;;
51451;SDS011;37521;52.020;-1.740;2023-02-15T10:57:15;22.00;;;10.68;;
51451;SDS011;37521;52.020;-1.740;2023-02-15T10:59:53;22.05;;;9.48;;
51451;SDS011;37521;52.020;-1.740;2023-02-15T11:02:34;18.90;;;8.35;;
51451;SDS011;37521;52.020;-1.740;2023-02-15T11:05:18;18.43;;;9.03;;
51451;SDS011;37521;52.020;-1.740;2023-02-15T11:07:56;26.90;;;9.90;;
51451;SDS011;37521;52.020;-1.740;2023-02-15T11:10:29;21.63;;;9.60;;
51451;SDS011;37521;52.020;-1.740;2023-02-15T11:13:00;13.32;;;6.78;;
51451;SDS011;37521;52.020;-1.740;2023-02-15T11:15:34;12.63;;;6.13;;
51451;SDS011;37521;52.020;-1.740;2023-02-15T11:18:09;17.08;;;8.02;;
51451;SDS011;37521;52.020;-1.740;2023-02-15T11:20:44;14.25;;;7.03;;
51451;SDS011;37521;52.020;-1.740;2023-02-15T11:23:16;17.75;;;7.85;;
51451;SDS011;37521;52.020;-1.740;2023-02-15T11:25:45;15.38;;;7.18;;
51451;SDS011;37521;52.020;-1.740;2023-02-15T11:28:21;27.13;;;10.45;;
51451;SDS011;37521;52.020;-1.740;2023-02-15T11:30:54;18.23;;;8.30;;
51451;SDS011;37521;52.020;-1.740;2023-02-15T11:33:25;29.48;;;10.07;;
51451;SDS011;37521;52.020;-1.740;2023-02-15T11:35:59;16.23;;;8.23;;
51451;SDS011;37521;52.020;-1.740;2023-02-15T11:38:32;30.20;;;10.20;;
51451;SDS011;37521;52.020;-1.740;2023-02-15T11:41:02;25.67;;;9.75;;
51451;SDS011;37521;52.020;-1.740;2023-02-15T11:43:35;19.83;;;9.73;;
51451;SDS011;37521;52.020;-1.740;2023-02-15T11:46:08;25.38;;;10.40;;
51451;SDS011;37521;52.020;-1.740;2023-02-15T11:48:39;19.02;;;9.02;;
51451;SDS011;37521;52.020;-1.740;2023-02-15T11:51:10;24.67;;;10.10;;
51451;SDS011;37521;52.020;-1.740;2023-02-15T11:53:42;19.65;;;8.70;;
51451;SDS011;37521;52.020;-1.740;2023-02-15T11:56:13;22.35;;;10.23;;
51451;SDS011;37521;52.020;-1.740;2023-02-15T11:58:43;25.38;;;9.45;;
51451;SDS011;37521;52.020;-1.740;2023-02-15T12:01:16;17.88;;;10.00;;
51451;SDS011;37521;52.020;-1.740;2023-02-15T12:03:48;21.52;;;10.55;;
51451;SDS011;37521;52.020;-1.740;2023-02-15T12:06:22;21.80;;;9.32;;
51451;SDS011;37521;52.020;-1.740;2023-02-15T12:08:55;18.27;;;7.95;;
51451;SDS011;37521;52.020;-1.740;2023-02-15T12:11:31;16.75;;;6.68;;
51451;SDS011;37521;52.020;-1.740;2023-02-15T12:14:03;18.35;;;8.55;;
51451;SDS011;37521;52.020;-1.740;2023-02-15T12:16:34;18.30;;;9.13;;
51451;SDS011;37521;52.020;-1.740;2023-02-15T12:19:13;21.35;;;8.80;;
51451;SDS011;37521;52.020;-1.740;2023-02-15T12:21:57;20.20;;;9.65;;
51451;SDS011;37521;52.020;-1.740;2023-02-15T12:24:27;21.13;;;9.10;;
51451;SDS011;37521;52.020;-1.740;2023-02-15T12:26:59;23.52;;;9.40;;
51451;SDS011;37521;52.020;-1.740;2023-02-15T12:29:30;19.63;;;7.72;;
51451;SDS011;37521;52.020;-1.740;2023-02-15T12:32:03;15.52;;;7.10;;
51451;SDS011;37521;52.020;-1.740;2023-02-15T12:34:32;15.90;;;6.53;;
51451;SDS011;37521;52.020;-1.740;2023-02-15T12:37:10;20.25;;;5.70;;
51451;SDS011;37521;52.020;-1.740;2023-02-15T12:39:50;12.73;;;5.20;;
51451;SDS011;37521;52.020;-1.740;2023-02-15T12:42:21;16.58;;;7.20;;
51451;SDS011;37521;52.020;-1.740;2023-02-15T12:44:53;14.88;;;5.95;;
51451;SDS011;37521;52.020;-1.740;2023-02-15T12:47:24;15.52;;;5.82;;
51451;SDS011;37521;52.020;-1.740;2023-02-15T12:52:50;12.98;;;5.90;;
51451;SDS011;37521;52.020;-1.740;2023-02-15T12:55:32;14.70;;;5.15;;
51451;SDS011;37521;52.020;-1.740;2023-02-15T12:58:07;12.77;;;5.47;;
51451;SDS011;37521;52.020;-1.740;2023-02-15T13:00:36;13.65;;;6.25;;
51451;SDS011;37521;52.020;-1.740;2023-02-15T13:03:14;10.73;;;5.03;;
51451;SDS011;37521;52.020;-1.740;2023-02-15T13:05:44;13.38;;;5.35;;
51451;SDS011;37521;52.020;-1.740;2023-02-15T13:08:19;16.30;;;6.63;;
51451;SDS011;37521;52.020;-1.740;2023-02-15T13:10:53;9.95;;;6.22;;
51451;SDS011;37521;52.020;-1.740;2023-02-15T13:13:23;9.07;;;5.43;;
51451;SDS011;37521;52.020;-1.740;2023-02-15T13:15:54;19.13;;;6.97;;
51451;SDS011;37521;52.020;-1.740;2023-02-15T13:18:29;12.25;;;6.60;;
51451;SDS011;37521;52.020;-1.740;2023-02-15T13:21:00;11.55;;;5.22;;
51451;SDS011;37521;52.020;-1.740;2023-02-15T13:23:38;11.07;;;5.63;;
51451;SDS011;37521;52.020;-1.740;2023-02-15T13:26:10;10.63;;;4.80;;
51451;SDS011;37521;52.020;-1.740;2023-02-15T13:28:44;7.90;;;4.32;;
51451;SDS011;37521;52.020;-1.740;2023-02-15T13:31:15;9.98;;;5.05;;
51451;SDS011;37521;52.020;-1.740;2023-02-15T13:33:46;12.15;;;4.40;;
51451;SDS011;37521;52.020;-1.740;2023-02-15T13:36:20;14.23;;;5.85;;
51451;SDS011;37521;52.020;-1.740;2023-02-15T13:38:59;8.70;;;4.10;;
51451;SDS011;37521;52.020;-1.740;2023-02-15T13:41:41;7.05;;;3.97;;
51451;SDS011;37521;52.020;-1.740;2023-02-15T13:44:21;5.65;;;3.65;;
51451;SDS011;37521;52.020;-1.740;2023-02-15T13:47:05;9.10;;;4.10;;
51451;SDS011;37521;52.020;-1.740;2023-02-15T13:49:47;15.45;;;4.80;;
51451;SDS011;37521;52.020;-1.740;2023-02-15T13:52:24;13.68;;;4.25;;
51451;SDS011;37521;52.020;-1.740;2023-02-15T13:55:02;6.95;;;3.65;;
51451;SDS011;37521;52.020;-1.740;2023-02-15T13:57:51;9.57;;;3.70;;
51451;SDS011;37521;52.020;-1.740;2023-02-15T14:00:35;5.25;;;3.33;;
51451;SDS011;37521;52.020;-1.740;2023-02-15T14:03:21;4.68;;;3.30;;
51451;SDS011;37521;52.020;-1.740;2023-02-15T14:06:16;5.93;;;3.67;;
51451;SDS011;37521;52.020;-1.740;2023-02-15T14:09:00;6.95;;;3.65;;
51451;SDS011;37521;52.020;-1.740;2023-02-15T14:11:39;7.68;;;3.47;;
51451;SDS011;37521;52.020;-1.740;2023-02-15T14:17:16;7.40;;;3.63;;
51451;SDS011;37521;52.020;-1.740;2023-02-15T14:19:52;10.18;;;4.10;;
51451;SDS011;37521;52.020;-1.740;2023-02-15T14:22:26;6.78;;;3.42;;
51451;SDS011;37521;52.020;-1.740;2023-02-15T14:25:06;11.88;;;3.47;;
51451;SDS011;37521;52.020;-1.740;2023-02-15T14:27:49;7.88;;;4.03;;
51451;SDS011;37521;52.020;-1.740;2023-02-15T14:30:25;7.75;;;3.42;;
51451;SDS011;37521;52.020;-1.740;2023-02-15T14:32:59;7.75;;;3.72;;
51451;SDS011;37521;52.020;-1.740;2023-02-15T14:35:29;5.82;;;2.75;;
51451;SDS011;37521;52.020;-1.740;2023-02-15T14:38:00;9.23;;;3.42;;
51451;SDS011;37521;52.020;-1.740;2023-02-15T14:40:38;4.50;;;2.83;;
51451;SDS011;37521;52.020;-1.740;2023-02-15T14:43:37;4.97;;;3.25;;
51451;SDS011;37521;52.020;-1.740;2023-02-15T14:46:17;5.50;;;3.00;;
51451;SDS011;37521;52.020;-1.740;2023-02-15T14:48:50;4.10;;;2.90;;
51451;SDS011;37521;52.020;-1.740;2023-02-15T14:57:32;5.30;;;3.40;;
51451;SDS011;37521;52.020;-1.740;2023-02-15T15:03:10;4.30;;;3.10;;
51451;SDS011;37521;52.020;-1.740;2023-02-15T15:05:47;6.17;;;4.43;;
51451;SDS011;37521;52.020;-1.740;2023-02-15T15:08:22;9.80;;;5.10;;
51451;SDS011;37521;52.020;-1.740;2023-02-15T15:10:55;9.80;;;3.95;;
51451;SDS011;37521;52.020;-1.740;2023-02-15T15:16:24;5.47;;;3.25;;
51451;SDS011;37521;52.020;-1.740;2023-02-15T15:18:58;5.85;;;2.83;;
51451;SDS011;37521;52.020;-1.740;2023-02-15T15:33:08;7.15;;;3.53;;
51451;SDS011;37521;52.020;-1.740;2023-02-15T15:35:55;7.35;;;3.47;;
51451;SDS011;37521;52.020;-1.740;2023-02-15T15:38:43;6.50;;;3.03;;
51451;SDS011;37521;52.020;-1.740;2023-02-15T15:41:28;4.68;;;3.10;;